PWSweather.com
Personal Weather Stations
Station Observations
KAZTUCSO57
Countryside Manor, Tucson, AZ 85742

Countryside ManorTucson, AZ 85742

Lat: 32.3692, Lon: -111.066

Elevation: 2307

Station Type: Davis VP Pro+ 6163

http://frogville.us

Latest ConditionsUpdated 6:40:00 AM MST Sunday, Jun 16, 2019
Currently Today's Max Today's Min Today's Average
Temperature 73.7°F23.2°C 80.0°F26.7°C 67.6°F19.8°C 72.6°F22.6°C
Dew Point 42.8°F6.0°C 44.1°F6.7°C 39.8°F4.3°C 42.1°F5.6°C
Winds 1.2 mph NE1.9 kmh NE 1.2 mph -1.9 kmh - - 0.1 mph 0.2 kmh
Wind Gusts 2.3 mph3.7 kmh 2.3 mph3.7 kmh - -
Humidity 33% 39% 26% 34%
Pressure 29.73 in1006.8 mb 29.73 in1006.8 mb 29.68 in1005.1 mb -
Hour Temp Dew Point Humidity Winds Wind Gusts Pressure Precip Precip Rate Daily Precip Total
06:40 AM 73.7°F23.2°C 42.8°F6.0°C 33% 1.2 mph NE1.9 kmh NE 2.3 mph3.7 kmh 29.73 in1006.8 mb - 0.00 in0.0 mm 0.00 in0.0 mm
06:30 AM 71.9°F22.2°C 42.7°F5.9°C 35% Calm Calm 1.2 mph1.9 kmh 29.72 in1006.4 mb - 0.00 in0.0 mm 0.00 in0.0 mm
06:20 AM 70.3°F21.3°C 42.1°F5.6°C 36% Calm Calm 1.2 mph1.9 kmh 29.73 in1006.8 mb - 0.00 in0.0 mm 0.00 in0.0 mm
06:10 AM 68.8°F20.4°C 41.5°F5.3°C 37% Calm Calm 1.2 mph1.9 kmh 29.72 in1006.4 mb - 0.00 in0.0 mm 0.00 in0.0 mm
06:00 AM 67.8°F19.9°C 40.6°F4.8°C 37% Calm Calm 1.2 mph1.9 kmh 29.72 in1006.4 mb - 0.00 in0.0 mm 0.00 in0.0 mm
05:50 AM 67.6°F19.8°C 40.4°F4.7°C 37% Calm Calm 1.2 mph1.9 kmh 29.72 in1006.4 mb - 0.00 in0.0 mm 0.00 in0.0 mm
05:40 AM 67.7°F19.8°C 40.5°F4.7°C 37% 1.2 mph NE1.9 kmh NE 1.2 mph1.9 kmh 29.71 in1006.1 mb - 0.00 in0.0 mm 0.00 in0.0 mm
05:30 AM 68.0°F20.0°C 40.7°F4.8°C 37% 1.2 mph NE1.9 kmh NE 2.3 mph3.7 kmh 29.71 in1006.1 mb - 0.00 in0.0 mm 0.00 in0.0 mm
05:20 AM 68.3°F20.2°C 40.3°F4.6°C 36% Calm Calm 1.2 mph1.9 kmh 29.71 in1006.1 mb - 0.00 in0.0 mm 0.00 in0.0 mm
05:10 AM 68.5°F20.3°C 39.8°F4.3°C 35% Calm Calm 1.2 mph1.9 kmh 29.71 in1006.1 mb - 0.00 in0.0 mm 0.00 in0.0 mm
05:00 AM 68.6°F20.3°C 39.8°F4.3°C 35% Calm Calm -- 29.70 in1005.8 mb - 0.00 in0.0 mm 0.00 in0.0 mm
04:50 AM 68.6°F20.3°C 39.8°F4.3°C 35% Calm Calm -- 29.70 in1005.8 mb - 0.00 in0.0 mm 0.00 in0.0 mm
04:40 AM 68.8°F20.4°C 40.0°F4.4°C 35% Calm Calm 1.2 mph1.9 kmh 29.70 in1005.8 mb - 0.00 in0.0 mm 0.00 in0.0 mm
04:30 AM 69.1°F20.6°C 41.0°F5.0°C 36% Calm Calm -- 29.70 in1005.8 mb - 0.00 in0.0 mm 0.00 in0.0 mm
04:20 AM 69.5°F20.8°C 42.1°F5.6°C 37% Calm Calm 1.2 mph1.9 kmh 29.70 in1005.8 mb - 0.00 in0.0 mm 0.00 in0.0 mm
04:10 AM 69.9°F21.1°C 43.8°F6.6°C 39% Calm Calm -- 29.69 in1005.4 mb - 0.00 in0.0 mm 0.00 in0.0 mm
04:00 AM 70.2°F21.2°C 43.4°F6.3°C 38% Calm Calm -- 29.69 in1005.4 mb - 0.00 in0.0 mm 0.00 in0.0 mm
03:50 AM 70.4°F21.3°C 42.2°F5.7°C 36% Calm Calm -- 29.69 in1005.4 mb - 0.00 in0.0 mm 0.00 in0.0 mm
03:40 AM 70.8°F21.6°C 41.8°F5.4°C 35% Calm Calm 1.2 mph1.9 kmh 29.69 in1005.4 mb - 0.00 in0.0 mm 0.00 in0.0 mm
03:30 AM 71.3°F21.8°C 42.2°F5.7°C 35% Calm Calm -- 29.69 in1005.4 mb - 0.00 in0.0 mm 0.00 in0.0 mm
03:20 AM 71.6°F22.0°C 42.5°F5.8°C 35% Calm Calm 1.2 mph1.9 kmh 29.69 in1005.4 mb - 0.00 in0.0 mm 0.00 in0.0 mm
03:10 AM 72.1°F22.3°C 42.2°F5.7°C 34% Calm Calm 1.2 mph1.9 kmh 29.68 in1005.1 mb - 0.00 in0.0 mm 0.00 in0.0 mm
03:00 AM 72.7°F22.6°C 41.9°F5.5°C 33% Calm Calm 1.2 mph1.9 kmh 29.68 in1005.1 mb - 0.00 in0.0 mm 0.00 in0.0 mm
02:50 AM 73.1°F22.8°C 43.1°F6.2°C 34% Calm Calm -- 29.68 in1005.1 mb - 0.00 in0.0 mm 0.00 in0.0 mm
02:40 AM 73.4°F23.0°C 44.1°F6.7°C 35% Calm Calm -- 29.68 in1005.1 mb - 0.00 in0.0 mm 0.00 in0.0 mm
02:30 AM 73.6°F23.1°C 43.5°F6.4°C 34% Calm Calm 1.2 mph1.9 kmh 29.68 in1005.1 mb - 0.00 in0.0 mm 0.00 in0.0 mm
02:20 AM 73.7°F23.2°C 42.8°F6.0°C 33% Calm Calm 1.2 mph1.9 kmh 29.68 in1005.1 mb - 0.00 in0.0 mm 0.00 in0.0 mm
02:10 AM 74.0°F23.3°C 43.1°F6.2°C 33% Calm Calm 2.3 mph3.7 kmh 29.68 in1005.1 mb - 0.00 in0.0 mm 0.00 in0.0 mm
02:00 AM 74.5°F23.6°C 42.7°F5.9°C 32% 1.2 mph W1.9 kmh W 1.2 mph1.9 kmh 29.69 in1005.4 mb - 0.00 in0.0 mm 0.00 in0.0 mm
01:50 AM 75.0°F23.9°C 43.2°F6.2°C 32% Calm Calm -- 29.69 in1005.4 mb - 0.00 in0.0 mm 0.00 in0.0 mm
01:40 AM 75.6°F24.2°C 43.7°F6.5°C 32% Calm Calm -- 29.69 in1005.4 mb - 0.00 in0.0 mm 0.00 in0.0 mm
01:30 AM 76.1°F24.5°C 43.3°F6.3°C 31% Calm Calm -- 29.69 in1005.4 mb - 0.00 in0.0 mm 0.00 in0.0 mm
01:20 AM 76.4°F24.7°C 42.7°F5.9°C 30% Calm Calm -- 29.69 in1005.4 mb - 0.00 in0.0 mm 0.00 in0.0 mm
01:10 AM 76.9°F24.9°C 43.1°F6.2°C 30% Calm Calm 1.2 mph1.9 kmh 29.69 in1005.4 mb - 0.00 in0.0 mm 0.00 in0.0 mm
01:00 AM 77.4°F25.2°C 43.5°F6.4°C 30% Calm Calm -- 29.69 in1005.4 mb - 0.00 in0.0 mm 0.00 in0.0 mm
12:50 AM 77.7°F25.4°C 42.9°F6.1°C 29% Calm Calm -- 29.69 in1005.4 mb - 0.00 in0.0 mm 0.00 in0.0 mm
12:40 AM 78.0°F25.6°C 42.2°F5.7°C 28% Calm Calm -- 29.70 in1005.8 mb - 0.00 in0.0 mm 0.00 in0.0 mm
12:30 AM 78.2°F25.7°C 42.4°F5.8°C 28% Calm Calm 1.2 mph1.9 kmh 29.70 in1005.8 mb - 0.00 in0.0 mm 0.00 in0.0 mm
12:20 AM 78.7°F25.9°C 42.8°F6.0°C 28% Calm Calm 1.2 mph1.9 kmh 29.70 in1005.8 mb - 0.00 in0.0 mm 0.00 in0.0 mm
12:10 AM 79.2°F26.2°C 42.3°F5.7°C 27% Calm Calm -- 29.70 in1005.8 mb - 0.00 in0.0 mm 0.00 in0.0 mm
12:00 AM 80.0°F26.7°C 42.0°F5.6°C 26% Calm Calm 1.2 mph1.9 kmh 29.70 in1005.8 mb - 0.00 in0.0 mm 0.00 in0.0 mm